Time;durP1;ratioP1;P1;durP2;ratioP2;P2;SDS_P1;SDS_P2;PMS_P1;PMS_P2;Temp;Humidity;BMP_temperature;BMP_pressure;BME280_temperature;BME280_humidity;BME280_pressure;Samples;Min_cycle;Max_cycle;Signal;HPM_P1;HPM_P2
2023/06/06 00:01:03;;;;;;;7.60;3.00;;;18.60;99.90;;;;;;5071743;28;20307;-60
2023/06/06 00:03:29;;;;;;;4.70;3.13;;;18.60;99.90;;;;;;5075756;28;20183;-61
2023/06/06 00:05:55;;;;;;;4.30;3.13;;;18.60;99.90;;;;;;5059249;28;20238;-59
2023/06/06 00:08:23;;;;;;;5.43;3.43;;;18.50;99.90;;;;;;5078121;28;20181;-59
2023/06/06 00:10:49;;;;;;;3.83;3.00;;;18.50;99.90;;;;;;5060468;28;20188;-59
2023/06/06 00:13:17;;;;;;;6.17;3.00;;;18.30;99.90;;;;;;5074432;28;20223;-60
2023/06/06 00:15:44;;;;;;;4.63;2.90;;;18.30;99.90;;;;;;5057022;28;20238;-61
2023/06/06 00:18:11;;;;;;;5.97;3.27;;;18.30;99.90;;;;;;5073823;28;20188;-60
2023/06/06 00:20:38;;;;;;;5.30;3.50;;;18.30;99.90;;;;;;5088855;28;20169;-60
2023/06/06 00:23:04;;;;;;;5.03;3.43;;;18.30;99.90;;;;;;5056212;28;20187;-60
2023/06/06 00:25:30;;;;;;;6.47;3.37;;;18.30;99.90;;;;;;5073506;28;20173;-60
2023/06/06 00:27:56;;;;;;;6.73;3.30;;;18.20;99.90;;;;;;5054858;28;20279;-59
2023/06/06 00:30:21;;;;;;;4.40;3.00;;;18.20;99.90;;;;;;5051231;28;20237;-60
2023/06/06 00:32:47;;;;;;;4.17;3.33;;;18.00;99.90;;;;;;5053192;28;20295;-60
2023/06/06 00:35:13;;;;;;;5.97;3.47;;;18.00;99.90;;;;;;5052955;28;20455;-60
2023/06/06 00:37:38;;;;;;;4.23;3.13;;;18.00;99.90;;;;;;5054618;28;20173;-60
2023/06/06 00:40:06;;;;;;;5.80;3.37;;;18.00;99.90;;;;;;5054178;28;20161;-60
2023/06/06 00:42:31;;;;;;;5.10;3.20;;;18.00;99.90;;;;;;5055135;28;20165;-60
2023/06/06 00:44:57;;;;;;;8.80;3.77;;;18.00;99.90;;;;;;5054166;28;20482;-61
2023/06/06 00:47:23;;;;;;;6.57;3.50;;;17.90;99.90;;;;;;5052397;28;20243;-61
2023/06/06 00:49:49;;;;;;;4.47;3.30;;;17.90;99.90;;;;;;5051754;28;20178;-58
2023/06/06 00:52:16;;;;;;;8.10;3.43;;;17.90;99.90;;;;;;5053078;28;20234;-61
2023/06/06 00:54:42;;;;;;;4.63;3.33;;;17.90;99.90;;;;;;5052099;28;20369;-60
2023/06/06 00:57:09;;;;;;;4.13;3.50;;;17.80;99.90;;;;;;5051181;28;20489;-60
2023/06/06 00:59:37;;;;;;;5.77;3.30;;;17.80;99.90;;;;;;5053770;28;20461;-60
2023/06/06 01:02:09;;;;;;;7.67;3.53;;;17.80;99.90;;;;;;5053827;28;20166;-60
2023/06/06 01:04:41;;;;;;;5.50;3.73;;;17.70;99.90;;;;;;5054551;28;20545;-60
2023/06/06 01:07:09;;;;;;;6.07;3.53;;;17.70;99.90;;;;;;5055089;28;20204;-60
2023/06/06 01:09:36;;;;;;;4.03;3.40;;;17.70;99.90;;;;;;5052884;28;20209;-60
2023/06/06 01:12:10;;;;;;;5.67;3.73;;;17.60;99.90;;;;;;5052743;28;20243;-60
2023/06/06 01:15:10;;;;;;;7.00;3.37;;;17.50;99.90;;;;;;5054030;28;20170;-60
2023/06/06 01:17:36;;;;;;;5.33;3.40;;;17.50;99.90;;;;;;5052583;28;20180;-60
2023/06/06 01:20:07;;;;;;;4.43;3.80;;;17.50;99.90;;;;;;5053361;28;20179;-61
2023/06/06 01:22:35;;;;;;;4.67;3.40;;;17.50;99.90;;;;;;5053607;28;20165;-60
2023/06/06 01:25:02;;;;;;;4.90;3.70;;;17.40;99.90;;;;;;5054036;28;20184;-60
2023/06/06 01:27:33;;;;;;;5.83;2.83;;;17.40;99.90;;;;;;5053427;28;20177;-60
2023/06/06 01:29:59;;;;;;;5.40;3.57;;;17.40;99.90;;;;;;5051914;28;20620;-60
2023/06/06 01:32:51;;;;;;;4.43;4.00;;;17.40;99.90;;;;;;5052118;28;20205;-60
2023/06/06 01:35:45;;;;;;;4.93;3.63;;;17.30;99.90;;;;;;5052394;28;20166;-60
2023/06/06 01:38:21;;;;;;;5.53;3.37;;;17.20;99.90;;;;;;5051279;28;20264;-60
2023/06/06 01:40:49;;;;;;;6.90;3.70;;;17.20;99.90;;;;;;5052407;28;20165;-59
2023/06/06 01:43:16;;;;;;;5.50;3.30;;;17.20;99.90;;;;;;5052237;28;20209;-60
2023/06/06 01:45:44;;;;;;;7.50;3.63;;;17.20;99.90;;;;;;5052528;28;20177;-60
2023/06/06 01:48:11;;;;;;;7.53;4.33;;;17.20;99.90;;;;;;5051847;28;20187;-61
2023/06/06 01:50:38;;;;;;;5.80;3.97;;;17.20;99.90;;;;;;5052453;28;20310;-60
2023/06/06 01:53:03;;;;;;;7.27;3.87;;;17.20;99.90;;;;;;5051984;28;20201;-60
2023/06/06 01:55:29;;;;;;;7.70;4.37;;;17.20;99.90;;;;;;5052293;28;20537;-60
2023/06/06 01:57:57;;;;;;;8.93;4.30;;;17.10;99.90;;;;;;5052169;28;20180;-60
2023/06/06 02:00:22;;;;;;;6.77;4.17;;;17.00;99.90;;;;;;5051520;28;20165;-60
2023/06/06 02:02:48;;;;;;;5.30;3.40;;;17.00;99.90;;;;;;5051570;28;20188;-60
2023/06/06 02:05:14;;;;;;;5.30;3.90;;;17.00;99.90;;;;;;5051318;28;20525;-60
2023/06/06 02:07:41;;;;;;;5.03;3.83;;;17.00;99.90;;;;;;5051339;28;20166;-60
2023/06/06 02:10:07;;;;;;;5.63;3.97;;;16.90;99.90;;;;;;5050208;28;20181;-60
2023/06/06 02:12:33;;;;;;;6.70;3.80;;;16.90;99.90;;;;;;5051052;28;20212;-60
2023/06/06 02:15:02;;;;;;;5.43;4.37;;;16.80;99.90;;;;;;5052322;28;20176;-60
2023/06/06 02:17:28;;;;;;;8.13;4.20;;;16.80;99.90;;;;;;5053258;28;20208;-60
2023/06/06 02:19:53;;;;;;;7.53;3.77;;;16.80;99.90;;;;;;5053257;28;20193;-62
2023/06/06 02:22:19;;;;;;;5.83;3.87;;;16.70;99.90;;;;;;5054541;28;20170;-60
2023/06/06 02:24:46;;;;;;;5.87;4.20;;;16.70;99.90;;;;;;5054822;28;20181;-61
2023/06/06 02:27:14;;;;;;;5.63;4.30;;;16.80;99.90;;;;;;5053541;28;20229;-59
2023/06/06 02:29:40;;;;;;;9.23;4.20;;;16.70;99.90;;;;;;5052607;28;20244;-60
2023/06/06 02:32:06;;;;;;;6.20;4.40;;;16.70;99.90;;;;;;5052738;28;20165;-60
2023/06/06 02:34:32;;;;;;;8.30;4.20;;;16.70;99.90;;;;;;5053332;28;20229;-59
2023/06/06 02:36:59;;;;;;;8.87;4.57;;;16.70;99.90;;;;;;5059510;28;20165;-58
2023/06/06 02:39:25;;;;;;;6.10;4.10;;;16.60;99.90;;;;;;5059264;28;20169;-62
2023/06/06 02:41:50;;;;;;;8.63;4.10;;;16.50;99.90;;;;;;5060679;28;20165;-61
2023/06/06 02:44:17;;;;;;;6.10;4.60;;;16.50;99.90;;;;;;5059930;28;20239;-60
2023/06/06 02:46:43;;;;;;;8.03;4.43;;;16.40;99.90;;;;;;5058730;28;20177;-60
2023/06/06 02:49:09;;;;;;;5.70;4.27;;;16.50;99.90;;;;;;5058984;28;20173;-59
2023/06/06 02:51:36;;;;;;;9.10;4.00;;;16.50;99.90;;;;;;5058839;28;20457;-60
2023/06/06 02:54:02;;;;;;;6.00;4.57;;;16.50;99.90;;;;;;5058074;28;20201;-60
2023/06/06 02:56:28;;;;;;;5.37;3.90;;;16.40;99.90;;;;;;5058141;28;20264;-60
2023/06/06 02:58:53;;;;;;;5.20;4.07;;;16.40;99.90;;;;;;5075456;28;20192;-60
2023/06/06 03:01:21;;;;;;;10.03;4.47;;;16.30;99.90;;;;;;5058754;28;20166;-62
2023/06/06 03:03:47;;;;;;;5.43;4.07;;;16.30;99.90;;;;;;5076231;28;20169;-59
2023/06/06 03:06:15;;;;;;;7.17;4.60;;;16.30;99.90;;;;;;5058150;28;20290;-60
2023/06/06 03:08:44;;;;;;;6.90;3.97;;;16.30;99.90;;;;;;5059341;28;20170;-60
2023/06/06 03:11:10;;;;;;;8.53;4.70;;;16.20;99.90;;;;;;5058716;28;20189;-60
2023/06/06 03:13:36;;;;;;;9.70;4.60;;;16.20;99.90;;;;;;5058204;28;20432;-60
2023/06/06 03:16:01;;;;;;;4.43;3.97;;;16.10;99.90;;;;;;5059742;28;20179;-59
2023/06/06 03:18:27;;;;;;;6.03;4.30;;;16.10;99.90;;;;;;5058628;28;20258;-60
2023/06/06 03:20:53;;;;;;;4.67;3.80;;;16.10;99.90;;;;;;5059367;28;20176;-60
2023/06/06 03:23:20;;;;;;;6.57;4.33;;;16.10;99.90;;;;;;5057307;28;20201;-60
2023/06/06 03:25:49;;;;;;;6.03;4.33;;;16.10;99.90;;;;;;5055902;28;20588;-60
2023/06/06 03:28:17;;;;;;;6.77;4.30;;;16.00;99.90;;;;;;5055492;28;20264;-60
2023/06/06 03:30:43;;;;;;;11.60;4.90;;;16.00;99.90;;;;;;5055451;28;20236;-60
2023/06/06 03:33:09;;;;;;;5.40;4.47;;;16.10;99.90;;;;;;5055343;28;20300;-60
2023/06/06 03:35:35;;;;;;;6.47;4.03;;;16.10;99.90;;;;;;5056315;28;20330;-60
2023/06/06 03:38:04;;;;;;;5.60;3.67;;;16.00;99.90;;;;;;5056908;28;20165;-60
2023/06/06 03:40:30;;;;;;;7.00;4.07;;;16.00;99.90;;;;;;5058445;28;20176;-60
2023/06/06 03:42:55;;;;;;;8.60;4.77;;;16.00;99.90;;;;;;5057883;28;20408;-60
2023/06/06 03:45:21;;;;;;;9.50;5.03;;;15.90;99.90;;;;;;5057796;28;20447;-60
2023/06/06 03:47:48;;;;;;;7.50;4.43;;;15.90;99.90;;;;;;5052440;28;20218;-60
2023/06/06 03:50:13;;;;;;;6.70;4.27;;;15.90;99.90;;;;;;5051459;28;20462;-60
2023/06/06 03:52:43;;;;;;;7.17;4.20;;;16.00;99.90;;;;;;5052452;28;20205;-60
2023/06/06 03:55:10;;;;;;;5.67;4.53;;;16.00;99.90;;;;;;5052579;28;20569;-60
2023/06/06 03:57:39;;;;;;;7.60;5.30;;;16.00;99.90;;;;;;5051701;28;20170;-60
2023/06/06 04:00:13;;;;;;;5.60;4.33;;;16.00;99.90;;;;;;5051713;28;20265;-60
2023/06/06 04:02:40;;;;;;;9.00;4.73;;;16.00;99.90;;;;;;5051824;28;20212;-61
2023/06/06 04:05:06;;;;;;;7.50;5.07;;;16.00;99.90;;;;;;5051337;28;20419;-60
2023/06/06 04:07:32;;;;;;;8.27;4.77;;;16.00;99.90;;;;;;5052230;28;20462;-60
2023/06/06 04:09:58;;;;;;;8.97;4.77;;;16.00;99.90;;;;;;5049953;28;20212;-62
2023/06/06 04:12:24;;;;;;;5.37;4.63;;;16.00;99.90;;;;;;5050584;28;20200;-60
2023/06/06 04:14:50;;;;;;;6.07;4.93;;;16.00;99.90;;;;;;5048419;28;20209;-59
2023/06/06 04:17:15;;;;;;;9.47;4.20;;;16.00;99.90;;;;;;5047614;28;20172;-60
2023/06/06 04:19:41;;;;;;;6.77;4.50;;;15.90;99.90;;;;;;5048916;28;20170;-60
2023/06/06 04:22:07;;;;;;;5.80;4.57;;;15.90;99.90;;;;;;5047099;28;20166;-61
2023/06/06 04:24:32;;;;;;;8.50;5.23;;;16.00;99.90;;;;;;5045896;28;20636;-56
2023/06/06 04:27:03;;;;;;;7.03;5.13;;;16.00;99.90;;;;;;5045109;28;20268;-60
2023/06/06 04:29:32;;;;;;;6.97;4.90;;;16.00;99.90;;;;;;5044854;28;20308;-60
2023/06/06 04:31:59;;;;;;;7.67;4.80;;;16.00;99.90;;;;;;5047118;28;20162;-60
2023/06/06 04:34:29;;;;;;;7.33;4.20;;;16.00;99.90;;;;;;5049286;28;20212;-61
2023/06/06 04:37:01;;;;;;;6.20;4.97;;;15.90;99.90;;;;;;5049236;28;20171;-60
2023/06/06 04:39:27;;;;;;;6.53;4.60;;;15.90;99.90;;;;;;5049771;28;20244;-60
2023/06/06 04:41:56;;;;;;;6.33;4.70;;;15.90;99.90;;;;;;5049466;28;20248;-60
2023/06/06 04:44:22;;;;;;;7.17;4.23;;;15.90;99.90;;;;;;5051544;28;20201;-58
2023/06/06 04:46:48;;;;;;;7.10;4.87;;;15.90;99.90;;;;;;5050276;28;20350;-59
2023/06/06 04:49:15;;;;;;;9.60;4.30;;;15.90;99.90;;;;;;5049461;28;20197;-59
2023/06/06 04:51:43;;;;;;;6.93;4.50;;;15.90;99.90;;;;;;5049463;28;20177;-60
2023/06/06 04:54:08;;;;;;;7.97;4.60;;;15.90;99.90;;;;;;5048009;28;20209;-60
2023/06/06 04:56:34;;;;;;;11.77;4.23;;;15.90;99.90;;;;;;5048436;28;20182;-60
2023/06/06 04:59:05;;;;;;;6.73;4.50;;;15.90;99.90;;;;;;5046845;28;20166;-60
2023/06/06 05:01:37;;;;;;;5.93;4.60;;;15.90;99.90;;;;;;5046352;28;20175;-58
2023/06/06 05:04:03;;;;;;;7.80;5.00;;;15.90;99.90;;;;;;5044743;28;20272;-60
2023/06/06 05:06:31;;;;;;;7.63;4.63;;;16.00;99.90;;;;;;5047133;28;20177;-60
2023/06/06 05:08:57;;;;;;;9.03;4.80;;;16.00;99.90;;;;;;5048786;28;20448;-61
2023/06/06 05:11:23;;;;;;;7.10;4.97;;;16.00;99.90;;;;;;5048632;28;20189;-60
2023/06/06 05:13:48;;;;;;;6.07;3.80;;;16.00;99.90;;;;;;5045406;28;20601;-60
2023/06/06 05:16:14;;;;;;;6.90;4.70;;;16.00;99.90;;;;;;5043823;28;20296;-60
2023/06/06 05:18:40;;;;;;;5.97;4.50;;;16.10;99.90;;;;;;5046526;28;20544;-60
2023/06/06 05:21:06;;;;;;;7.17;4.70;;;16.10;99.90;;;;;;5047900;28;20504;-60
2023/06/06 05:23:32;;;;;;;5.43;4.33;;;16.10;99.90;;;;;;5047401;28;20180;-59
2023/06/06 05:25:58;;;;;;;8.10;4.13;;;16.10;99.90;;;;;;5046875;28;20166;-59
2023/06/06 05:28:24;;;;;;;4.83;3.60;;;16.10;99.90;;;;;;5047918;28;20280;-60
2023/06/06 05:30:52;;;;;;;5.77;3.83;;;16.20;99.90;;;;;;5069407;28;20183;-60
2023/06/06 05:33:20;;;;;;;5.80;3.73;;;16.20;99.90;;;;;;5068629;28;20196;-60
2023/06/06 05:35:49;;;;;;;9.07;4.57;;;16.20;99.90;;;;;;5067519;28;20284;-60
2023/06/06 05:38:19;;;;;;;7.23;4.60;;;16.20;99.90;;;;;;5049813;28;20191;-60
2023/06/06 05:40:44;;;;;;;4.03;3.43;;;16.30;99.90;;;;;;5067110;28;20472;-60
2023/06/06 05:43:10;;;;;;;9.40;4.90;;;16.30;99.90;;;;;;5045983;28;20212;-60
2023/06/06 05:45:36;;;;;;;5.30;3.77;;;16.30;99.90;;;;;;5044270;28;20214;-60
2023/06/06 05:48:03;;;;;;;5.67;4.23;;;16.30;99.90;;;;;;5043471;28;20180;-60
2023/06/06 05:50:29;;;;;;;5.60;3.63;;;16.30;99.90;;;;;;5063718;28;20184;-60
2023/06/06 05:52:54;;;;;;;6.57;3.37;;;16.40;99.90;;;;;;5065349;28;20185;-60
2023/06/06 05:55:31;;;;;;;7.87;3.60;;;16.40;99.90;;;;;;5048557;28;20169;-59
2023/06/06 05:57:58;;;;;;;5.20;3.00;;;16.40;99.90;;;;;;5066641;28;20211;-60
2023/06/06 06:00:25;;;;;;;6.83;3.40;;;16.40;99.90;;;;;;5040139;28;20236;-60
2023/06/06 06:02:52;;;;;;;6.10;3.80;;;16.40;99.90;;;;;;5036257;28;20177;-60
2023/06/06 06:05:22;;;;;;;7.50;4.23;;;16.50;99.90;;;;;;5039731;28;20283;-60
2023/06/06 06:07:48;;;;;;;6.47;3.80;;;16.50;99.90;;;;;;5039378;28;20346;-60
2023/06/06 06:10:14;;;;;;;3.87;3.20;;;16.50;99.90;;;;;;5074205;28;20183;-60
2023/06/06 06:12:41;;;;;;;5.13;3.00;;;16.50;99.90;;;;;;5056303;28;20192;-60
2023/06/06 06:15:08;;;;;;;4.50;3.97;;;16.50;99.90;;;;;;5035945;28;20432;-60
2023/06/06 06:17:33;;;;;;;5.80;3.37;;;16.60;99.90;;;;;;5039559;28;20267;-61
2023/06/06 06:20:06;;;;;;;4.67;3.50;;;16.60;99.90;;;;;;5058646;28;20255;-60
2023/06/06 06:22:31;;;;;;;5.33;3.30;;;16.70;99.90;;;;;;5041753;28;20249;-60
2023/06/06 06:24:57;;;;;;;6.87;3.37;;;16.70;99.90;;;;;;5073377;28;20502;-61
2023/06/06 06:27:24;;;;;;;7.27;3.97;;;16.70;99.90;;;;;;5059265;28;20281;-61
2023/06/06 06:29:50;;;;;;;3.13;2.63;;;16.70;99.90;;;;;;5040430;28;20320;-60
2023/06/06 06:32:17;;;;;;;4.93;3.23;;;16.70;99.90;;;;;;5040796;28;20169;-60
2023/06/06 06:34:43;;;;;;;4.30;3.20;;;16.70;99.90;;;;;;5038092;28;20196;-60
2023/06/06 06:37:09;;;;;;;4.40;3.03;;;16.80;99.90;;;;;;5038550;28;20191;-60
2023/06/06 06:39:34;;;;;;;5.70;2.63;;;16.80;99.90;;;;;;5037062;28;20211;-60
2023/06/06 06:42:00;;;;;;;4.60;2.90;;;16.80;99.90;;;;;;5053275;28;20179;-59
2023/06/06 06:44:26;;;;;;;4.20;3.07;;;16.90;99.90;;;;;;5051519;28;20478;-59
2023/06/06 06:46:51;;;;;;;3.47;2.60;;;16.80;99.90;;;;;;5033699;28;20252;-59
2023/06/06 06:49:17;;;;;;;3.77;2.67;;;16.90;99.90;;;;;;5069882;28;20234;-60
2023/06/06 06:51:44;;;;;;;3.33;2.23;;;16.90;99.90;;;;;;5035289;28;20172;-58
2023/06/06 06:54:13;;;;;;;5.90;2.93;;;16.90;99.90;;;;;;5051965;28;20366;-59
2023/06/06 06:56:42;;;;;;;2.90;2.33;;;16.90;99.90;;;;;;5034817;28;20176;-60
2023/06/06 06:59:09;;;;;;;4.13;3.00;;;17.00;99.90;;;;;;5037725;28;20179;-60
2023/06/06 07:01:37;;;;;;;6.03;2.50;;;17.00;99.90;;;;;;5037598;28;20475;-60
2023/06/06 07:04:05;;;;;;;4.60;2.43;;;17.00;99.90;;;;;;5037002;28;20177;-59
2023/06/06 07:06:33;;;;;;;5.30;2.97;;;17.00;99.90;;;;;;5036321;28;20348;-60
2023/06/06 07:08:58;;;;;;;2.63;2.30;;;17.10;99.90;;;;;;5036481;28;20245;-59
2023/06/06 07:11:24;;;;;;;2.77;2.53;;;17.10;99.90;;;;;;5065687;28;20190;-60
2023/06/06 07:13:49;;;;;;;2.73;2.07;;;17.10;99.90;;;;;;5060743;28;20261;-59
2023/06/06 07:16:16;;;;;;;7.40;2.20;;;17.10;99.90;;;;;;5042673;28;20183;-60
2023/06/06 07:18:41;;;;;;;2.80;2.27;;;17.20;99.90;;;;;;5062476;28;20489;-59
2023/06/06 07:21:07;;;;;;;3.57;2.37;;;17.20;99.90;;;;;;5062461;28;20653;-59
2023/06/06 07:23:34;;;;;;;3.03;1.93;;;17.30;99.90;;;;;;5047426;28;20224;-60
2023/06/06 07:25:59;;;;;;;8.17;3.20;;;17.30;99.90;;;;;;5048003;28;20233;-60
2023/06/06 07:28:25;;;;;;;5.70;2.73;;;17.30;99.90;;;;;;5067479;28;20169;-60
2023/06/06 07:30:51;;;;;;;3.67;2.23;;;17.40;99.90;;;;;;5072312;28;20241;-60
2023/06/06 07:33:17;;;;;;;4.13;2.70;;;17.40;99.90;;;;;;5018153;28;20592;-60
2023/06/06 07:35:43;;;;;;;3.37;2.63;;;17.40;99.90;;;;;;5032779;28;20380;-60
2023/06/06 07:38:09;;;;;;;3.87;2.50;;;17.50;99.90;;;;;;5047271;28;20172;-60
2023/06/06 07:40:35;;;;;;;2.40;2.20;;;17.50;99.90;;;;;;5014408;28;20165;-61
2023/06/06 07:43:00;;;;;;;2.53;2.33;;;17.50;99.90;;;;;;5014974;28;20177;-60
2023/06/06 07:45:26;;;;;;;5.20;2.50;;;17.60;99.90;;;;;;5013498;28;20188;-59
2023/06/06 07:47:51;;;;;;;3.13;2.27;;;17.60;99.90;;;;;;5033909;28;20232;-59
2023/06/06 07:50:17;;;;;;;2.80;2.30;;;17.60;99.90;;;;;;5033929;28;20242;-60
2023/06/06 07:52:44;;;;;;;3.43;2.53;;;17.70;99.90;;;;;;5015808;28;20201;-59
2023/06/06 07:55:11;;;;;;;2.70;2.50;;;17.70;99.90;;;;;;5035097;28;20295;-60
2023/06/06 07:57:39;;;;;;;7.13;2.90;;;17.70;99.90;;;;;;5017086;28;20170;-57
2023/06/06 08:00:10;;;;;;;3.57;2.77;;;17.80;99.90;;;;;;5011729;28;20338;-60
2023/06/06 08:02:39;;;;;;;2.17;1.93;;;17.80;99.90;;;;;;5011166;28;20378;-60
2023/06/06 08:05:06;;;;;;;3.00;2.30;;;17.80;99.90;;;;;;5012855;28;20480;-60
2023/06/06 08:07:35;;;;;;;3.93;2.67;;;17.80;99.90;;;;;;5010842;28;20196;-60
2023/06/06 08:10:02;;;;;;;5.27;2.60;;;17.90;99.90;;;;;;5032448;28;20568;-60
2023/06/06 08:12:29;;;;;;;4.57;2.60;;;17.90;99.90;;;;;;5024175;28;20471;-60
2023/06/06 08:14:55;;;;;;;6.77;2.50;;;18.00;99.90;;;;;;5039961;28;20185;-60
2023/06/06 08:17:21;;;;;;;5.37;2.73;;;18.00;99.90;;;;;;5017808;28;20169;-60
2023/06/06 08:19:46;;;;;;;4.13;2.50;;;18.00;99.90;;;;;;5018595;28;20408;-60
2023/06/06 08:22:12;;;;;;;5.20;2.73;;;18.10;99.90;;;;;;5034689;28;20174;-60
2023/06/06 08:24:39;;;;;;;2.97;2.33;;;18.10;99.90;;;;;;5017742;28;20181;-60
2023/06/06 08:27:05;;;;;;;3.33;2.17;;;18.10;99.90;;;;;;5038005;28;20438;-60
2023/06/06 08:29:31;;;;;;;4.30;2.47;;;18.20;99.90;;;;;;5017787;28;20253;-60
2023/06/06 08:31:56;;;;;;;2.40;2.20;;;18.20;99.90;;;;;;5017698;28;20169;-58
2023/06/06 08:34:23;;;;;;;4.63;2.63;;;18.30;99.90;;;;;;5035541;28;20545;-60
2023/06/06 08:36:48;;;;;;;2.50;2.00;;;18.30;99.90;;;;;;5020154;28;20170;-61
2023/06/06 08:39:16;;;;;;;2.97;2.10;;;18.30;99.90;;;;;;5027032;28;20176;-58
2023/06/06 08:41:50;;;;;;;4.20;2.60;;;18.40;99.90;;;;;;5027301;28;20219;-57
2023/06/06 08:44:21;;;;;;;2.73;1.90;;;18.40;99.90;;;;;;5029562;28;20265;-56
2023/06/06 08:46:52;;;;;;;4.80;2.57;;;18.40;99.90;;;;;;5031319;28;20174;-61
2023/06/06 08:49:19;;;;;;;2.67;1.90;;;18.50;99.90;;;;;;5041873;28;20791;-59
2023/06/06 08:51:50;;;;;;;4.47;2.17;;;18.50;99.90;;;;;;5051721;28;20207;-60
2023/06/06 08:54:18;;;;;;;3.20;2.10;;;18.50;99.90;;;;;;5050439;28;20627;-60
2023/06/06 08:56:44;;;;;;;2.90;1.90;;;18.60;99.90;;;;;;5066475;28;20169;-60
2023/06/06 08:59:11;;;;;;;3.53;2.20;;;18.60;99.90;;;;;;5038265;28;20169;-60
2023/06/06 09:01:37;;;;;;;3.57;2.53;;;18.70;99.90;;;;;;5037480;28;20164;-59
2023/06/06 09:04:04;;;;;;;4.07;2.47;;;18.70;99.90;;;;;;5055829;28;20226;-59
2023/06/06 09:06:32;;;;;;;2.97;1.97;;;18.80;99.90;;;;;;5037576;28;20494;-59
2023/06/06 09:08:58;;;;;;;3.20;2.63;;;18.80;99.90;;;;;;5058622;28;20237;-58
2023/06/06 09:11:24;;;;;;;3.20;1.73;;;18.80;99.90;;;;;;5040309;28;20349;-58
2023/06/06 09:13:50;;;;;;;3.03;2.20;;;18.90;99.90;;;;;;5037802;28;20306;-60
2023/06/06 09:16:17;;;;;;;3.33;2.27;;;18.90;99.90;;;;;;5054590;28;20257;-60
2023/06/06 09:18:43;;;;;;;3.47;2.20;;;19.00;99.90;;;;;;5035798;28;20739;-59
2023/06/06 09:21:09;;;;;;;5.00;2.03;;;19.10;99.90;;;;;;5036325;28;20180;-59
2023/06/06 09:23:35;;;;;;;2.90;1.80;;;19.10;99.90;;;;;;5036933;28;20401;-60
2023/06/06 09:26:01;;;;;;;2.83;2.10;;;19.20;99.90;;;;;;5038698;28;20183;-60
2023/06/06 09:28:40;;;;;;;3.00;2.33;;;19.20;99.90;;;;;;5037479;28;20239;-58
2023/06/06 09:31:25;;;;;;;2.90;2.20;;;19.20;99.90;;;;;;5039835;28;20522;-58
2023/06/06 09:33:52;;;;;;;3.83;2.67;;;19.30;99.90;;;;;;5039672;28;20212;-60
2023/06/06 09:36:23;;;;;;;4.20;2.27;;;19.30;99.90;;;;;;5041752;28;20176;-60
2023/06/06 09:38:51;;;;;;;4.20;2.00;;;19.30;99.90;;;;;;5058647;28;20305;-59
2023/06/06 09:41:17;;;;;;;6.63;2.70;;;19.40;99.90;;;;;;5041151;28;20459;-61
2023/06/06 09:43:43;;;;;;;3.93;2.20;;;19.40;99.90;;;;;;5046928;28;20172;-60
2023/06/06 09:46:09;;;;;;;2.27;1.80;;;19.50;99.90;;;;;;5050892;28;20183;-60
2023/06/06 09:48:34;;;;;;;2.40;1.97;;;19.50;99.90;;;;;;5051301;28;20261;-59
2023/06/06 09:51:00;;;;;;;2.93;2.20;;;19.60;99.90;;;;;;5050451;28;20648;-60
2023/06/06 09:53:28;;;;;;;4.93;2.40;;;19.60;99.90;;;;;;5049137;28;20215;-60
2023/06/06 09:55:57;;;;;;;5.37;2.30;;;19.70;99.90;;;;;;5049617;28;20169;-60
2023/06/06 09:58:25;;;;;;;5.43;2.33;;;19.70;99.90;;;;;;5067315;28;20256;-60
2023/06/06 10:00:53;;;;;;;3.87;2.37;;;19.80;99.90;;;;;;5047020;28;20172;-59
2023/06/06 10:03:20;;;;;;;4.43;2.17;;;19.80;99.90;;;;;;5065038;28;20173;-60
2023/06/06 10:05:48;;;;;;;5.27;1.97;;;19.90;99.90;;;;;;5049776;28;20183;-58
2023/06/06 10:08:14;;;;;;;3.53;1.93;;;19.90;99.90;;;;;;5066937;28;20168;-60
2023/06/06 10:10:45;;;;;;;3.17;2.07;;;19.90;99.90;;;;;;5047360;28;20176;-59
2023/06/06 10:13:12;;;;;;;3.80;1.80;;;20.00;99.90;;;;;;5047936;28;20303;-60
2023/06/06 10:15:38;;;;;;;3.87;1.90;;;20.00;99.90;;;;;;5049037;28;20196;-57
2023/06/06 10:18:05;;;;;;;4.90;2.10;;;20.00;99.90;;;;;;5049533;28;20169;-59
2023/06/06 10:20:31;;;;;;;7.17;2.20;;;20.10;99.90;;;;;;5048045;28;20577;-59
2023/06/06 10:23:01;;;;;;;2.33;1.90;;;20.20;99.90;;;;;;5047853;28;20221;-60
2023/06/06 10:25:27;;;;;;;5.30;2.13;;;20.20;99.90;;;;;;5049185;28;20168;-59
2023/06/06 10:27:59;;;;;;;2.37;2.17;;;20.20;99.90;;;;;;5048943;28;20237;-57
2023/06/06 10:30:43;;;;;;;2.37;1.90;;;20.20;99.90;;;;;;5047907;28;20501;-59
2023/06/06 10:33:26;;;;;;;4.33;2.30;;;20.20;99.90;;;;;;5065803;28;20765;-60
2023/06/06 10:35:57;;;;;;;3.60;2.37;;;20.30;99.90;;;;;;5048800;28;20362;-59
2023/06/06 10:38:24;;;;;;;2.50;1.80;;;20.30;99.90;;;;;;5048311;28;20169;-59
2023/06/06 10:40:58;;;;;;;5.80;2.37;;;20.40;99.90;;;;;;5045285;28;20199;-57
2023/06/06 10:43:32;;;;;;;3.37;1.90;;;20.40;99.90;;;;;;5046953;28;20810;-59
2023/06/06 10:45:59;;;;;;;2.53;1.67;;;20.50;99.90;;;;;;5047128;28;20164;-60
2023/06/06 10:48:40;;;;;;;2.00;1.77;;;20.60;99.90;;;;;;5066016;28;20234;-60
2023/06/06 10:51:07;;;;;;;3.30;2.20;;;20.60;99.90;;;;;;5065414;28;20219;-60
2023/06/06 10:53:34;;;;;;;3.47;2.53;;;20.70;99.90;;;;;;5066171;28;20290;-60
2023/06/06 10:56:02;;;;;;;5.10;2.27;;;20.70;99.90;;;;;;5050242;28;20165;-59
2023/06/06 10:58:28;;;;;;;3.97;2.20;;;20.70;99.90;;;;;;5052121;28;20172;-60
2023/06/06 11:01:02;;;;;;;2.23;1.80;;;20.80;99.90;;;;;;5052725;28;20165;-58
2023/06/06 11:03:41;;;;;;;3.03;2.20;;;20.80;99.90;;;;;;5052265;28;20203;-60
2023/06/06 11:06:12;;;;;;;2.03;1.70;;;20.90;99.90;;;;;;5067471;28;20168;-59
2023/06/06 11:08:48;;;;;;;5.50;2.20;;;20.90;99.90;;;;;;5066176;28;20672;-59
2023/06/06 11:11:35;;;;;;;2.07;1.87;;;21.00;99.90;;;;;;5047655;28;20173;-59
2023/06/06 11:14:06;;;;;;;2.70;2.17;;;21.00;99.90;;;;;;5063842;28;20224;-59
2023/06/06 11:16:41;;;;;;;3.57;2.10;;;21.10;99.90;;;;;;5045814;28;20807;-59
2023/06/06 11:19:15;;;;;;;2.07;1.87;;;21.20;99.90;;;;;;5048229;28;20167;-57
2023/06/06 11:21:42;;;;;;;2.60;1.93;;;21.20;99.90;;;;;;5065200;28;20168;-59
2023/06/06 11:24:09;;;;;;;2.40;2.20;;;21.30;99.90;;;;;;5047276;28;20175;-56
2023/06/06 11:26:37;;;;;;;2.80;2.07;;;21.30;99.90;;;;;;5063910;28;20282;-58
2023/06/06 11:29:04;;;;;;;4.27;2.37;;;21.40;99.90;;;;;;5045617;28;20570;-59
2023/06/06 11:31:32;;;;;;;4.50;2.33;;;21.40;99.90;;;;;;5042259;28;20168;-59
2023/06/06 11:34:08;;;;;;;5.30;3.57;;;21.50;99.90;;;;;;5041657;28;20270;-60
2023/06/06 11:36:36;;;;;;;3.73;2.53;;;21.50;99.90;;;;;;5040996;28;20202;-59
2023/06/06 11:39:05;;;;;;;3.67;2.13;;;21.60;99.90;;;;;;5056626;28;20181;-59
2023/06/06 11:41:35;;;;;;;4.80;2.73;;;21.70;99.90;;;;;;5036230;28;20221;-60
2023/06/06 11:44:01;;;;;;;2.83;1.90;;;21.80;99.90;;;;;;5036133;28;20169;-60
2023/06/06 11:46:29;;;;;;;6.03;2.17;;;21.80;99.90;;;;;;5037763;28;20173;-57
2023/06/06 11:48:59;;;;;;;3.50;1.80;;;21.80;99.90;;;;;;5056960;28;20189;-57
2023/06/06 11:51:25;;;;;;;3.27;1.97;;;21.80;99.90;;;;;;5021995;28;20172;-59
2023/06/06 11:53:52;;;;;;;2.97;2.20;;;21.80;99.90;;;;;;5039846;28;20205;-59
2023/06/06 11:56:19;;;;;;;5.10;2.73;;;21.90;99.90;;;;;;5040713;28;20263;-58
2023/06/06 11:58:45;;;;;;;5.67;2.57;;;22.00;99.90;;;;;;5039789;28;20192;-59
2023/06/06 12:01:12;;;;;;;4.57;2.10;;;22.20;99.90;;;;;;5038168;28;20173;-58
2023/06/06 12:03:38;;;;;;;3.37;2.40;;;22.30;99.90;;;;;;5035580;28;20180;-60
2023/06/06 12:06:06;;;;;;;5.37;2.70;;;22.50;99.90;;;;;;5037764;28;20244;-59
2023/06/06 12:08:33;;;;;;;9.03;3.13;;;22.60;99.90;;;;;;5041619;28;20554;-59
2023/06/06 12:11:30;;;;;;;4.30;2.30;;;22.70;99.90;;;;;;5042448;28;20229;-60
2023/06/06 12:13:57;;;;;;;2.40;1.90;;;22.80;99.90;;;;;;5045512;28;20849;-57
2023/06/06 12:16:27;;;;;;;5.13;2.27;;;23.00;99.90;;;;;;5046945;28;20475;-57
2023/06/06 12:18:54;;;;;;;4.00;2.30;;;23.00;99.90;;;;;;5047166;28;20180;-60
2023/06/06 12:21:20;;;;;;;2.80;2.40;;;23.10;99.90;;;;;;5045062;28;20263;-58
2023/06/06 12:23:47;;;;;;;3.43;2.10;;;23.20;99.90;;;;;;5042241;28;20208;-60
2023/06/06 12:26:18;;;;;;;3.07;2.00;;;23.30;99.90;;;;;;5040700;28;20633;-58
2023/06/06 12:28:57;;;;;;;1.87;1.77;;;23.40;99.90;;;;;;5071403;28;20679;-59
2023/06/06 12:31:23;;;;;;;4.50;2.17;;;23.40;99.90;;;;;;5035491;28;20287;-59
2023/06/06 12:33:49;;;;;;;3.00;2.17;;;23.40;99.90;;;;;;5052798;28;20211;-56
2023/06/06 12:36:19;;;;;;;4.80;2.43;;;23.50;99.90;;;;;;5038215;28;20260;-59
2023/06/06 12:39:03;;;;;;;3.50;1.90;;;23.50;99.90;;;;;;5058445;28;20192;-60
2023/06/06 12:41:40;;;;;;;3.15;2.33;;;23.50;99.90;;;;;;5078879;28;20165;-58
2023/06/06 12:44:11;;;;;;;3.50;1.70;;;23.60;99.90;;;;;;5047689;28;20172;-60
2023/06/06 12:46:40;;;;;;;4.18;2.08;;;23.80;99.90;;;;;;5066623;28;20179;-58
2023/06/06 12:49:07;;;;;;;4.72;2.30;;;24.00;99.90;;;;;;5046271;28;20360;-58